createdAt,value
2023-02-04T00:01:56.130Z,6.00
2023-02-04T00:04:22.915Z,4.75
2023-02-04T00:06:49.740Z,5.25
2023-02-04T00:09:16.548Z,5.00
2023-02-04T00:11:43.353Z,4.00
2023-02-04T00:14:10.797Z,3.00
2023-02-04T00:16:38.939Z,4.50
2023-02-04T00:19:05.660Z,5.75
2023-02-04T00:21:32.638Z,5.75
2023-02-04T00:23:59.382Z,5.00
2023-02-04T00:26:26.112Z,5.00
2023-02-04T00:28:53.154Z,4.25
2023-02-04T00:31:20.021Z,4.50
2023-02-04T00:33:48.193Z,5.50
2023-02-04T00:36:14.940Z,4.25
2023-02-04T00:38:41.973Z,3.75
2023-02-04T00:41:08.976Z,5.00
2023-02-04T00:43:35.723Z,4.75
2023-02-04T00:46:05.508Z,3.50
2023-02-04T00:48:32.308Z,4.00
2023-02-04T00:51:00.432Z,4.00
2023-02-04T00:53:27.212Z,2.50
2023-02-04T00:55:53.994Z,3.00
2023-02-04T00:58:21.545Z,3.00
2023-02-04T01:00:48.548Z,3.25
2023-02-04T01:03:15.422Z,4.00
2023-02-04T01:05:42.266Z,4.00
2023-02-04T01:08:11.326Z,3.75
2023-02-04T01:10:38.299Z,2.25
2023-02-04T01:13:05.671Z,3.00
2023-02-04T01:15:32.509Z,3.50
2023-02-04T01:17:59.387Z,2.25
2023-02-04T01:20:26.744Z,3.50
2023-02-04T01:22:53.608Z,3.00
2023-02-04T01:25:21.863Z,3.00
2023-02-04T01:27:48.814Z,0.00
2023-02-04T01:30:16.587Z,4.50
2023-02-04T01:32:43.482Z,2.25
2023-02-04T01:35:10.237Z,3.25
2023-02-04T01:37:36.999Z,2.25
2023-02-04T01:40:04.941Z,4.00
2023-02-04T01:42:33.254Z,3.50
2023-02-04T01:45:00.652Z,4.00
2023-02-04T01:47:27.659Z,1.75
2023-02-04T01:49:55.556Z,5.00
2023-02-04T01:52:23.995Z,4.75
2023-02-04T01:54:52.528Z,5.75
2023-02-04T01:57:19.829Z,4.00
2023-02-04T01:59:56.181Z,3.00
2023-02-04T02:02:45.680Z,3.50
2023-02-04T02:05:20.022Z,3.00
2023-02-04T02:07:48.616Z,4.00
2023-02-04T02:10:17.392Z,3.00
2023-02-04T02:12:45.916Z,3.25
2023-02-04T02:15:15.712Z,3.00
2023-02-04T02:17:44.141Z,1.75
2023-02-04T02:20:16.462Z,3.00
2023-02-04T02:22:59.516Z,2.50
2023-02-04T02:25:27.782Z,1.00
2023-02-04T02:27:57.041Z,2.00
2023-02-04T02:30:24.771Z,1.00
2023-02-04T02:32:52.845Z,1.25
2023-02-04T02:35:21.255Z,1.75
2023-02-04T02:37:49.783Z,2.75
2023-02-04T02:40:17.533Z,2.50
2023-02-04T02:42:51.671Z,3.00
2023-02-04T02:45:25.232Z,2.00
2023-02-04T02:47:53.440Z,1.00
2023-02-04T02:50:24.592Z,1.50
2023-02-04T02:52:52.592Z,2.00
2023-02-04T02:55:24.587Z,1.00
2023-02-04T02:57:56.227Z,3.00
2023-02-04T03:00:27.057Z,2.50
2023-02-04T03:03:01.832Z,2.00
2023-02-04T03:05:35.168Z,2.00
2023-02-04T03:08:05.173Z,2.50
2023-02-04T03:10:32.457Z,1.75
2023-02-04T03:13:01.039Z,1.25
2023-02-04T03:15:29.695Z,3.00
2023-02-04T03:17:58.061Z,1.00
2023-02-04T03:20:28.312Z,2.50
2023-02-04T03:22:57.409Z,2.00
2023-02-04T03:25:25.328Z,2.50
2023-02-04T03:27:53.114Z,2.00
2023-02-04T03:30:22.818Z,2.00
2023-02-04T03:32:50.501Z,2.00
2023-02-04T03:35:18.081Z,2.00
2023-02-04T03:37:45.099Z,2.00
2023-02-04T03:40:12.919Z,1.25
2023-02-04T03:42:40.044Z,2.00
2023-02-04T03:45:07.840Z,2.75
2023-02-04T03:47:36.059Z,2.00
2023-02-04T03:50:03.182Z,2.00
2023-02-04T03:52:30.034Z,2.00
2023-02-04T03:54:56.938Z,2.00
2023-02-04T03:57:23.762Z,1.00
2023-02-04T03:59:50.560Z,0.00
2023-02-04T04:02:17.399Z,1.50
2023-02-04T04:04:45.530Z,2.25
2023-02-04T04:07:12.528Z,1.50
2023-02-04T04:09:39.411Z,2.00
2023-02-04T04:12:06.364Z,2.00
2023-02-04T04:14:33.425Z,1.00
2023-02-04T04:17:00.212Z,1.00
2023-02-04T04:19:27.702Z,2.00
2023-02-04T04:21:55.920Z,1.75
2023-02-04T04:24:23.038Z,1.00
2023-02-04T04:26:49.806Z,2.00
2023-02-04T04:29:16.582Z,1.00
2023-02-04T04:31:43.451Z,1.50
2023-02-04T04:34:10.419Z,2.00
2023-02-04T04:36:37.902Z,1.00
2023-02-04T04:39:06.180Z,2.00
2023-02-04T04:41:32.952Z,2.50
2023-02-04T04:43:59.681Z,2.00
2023-02-04T04:46:26.657Z,2.00
2023-02-04T04:48:53.625Z,1.75
2023-02-04T04:51:20.636Z,0.00
2023-02-04T04:53:47.418Z,2.25
2023-02-04T04:56:15.603Z,2.00
2023-02-04T04:58:42.363Z,2.25
2023-02-04T05:01:09.294Z,2.75
2023-02-04T05:03:36.109Z,1.25
2023-02-04T05:06:03.212Z,1.00
2023-02-04T05:08:30.008Z,2.00
2023-02-04T05:10:56.832Z,2.50
2023-02-04T05:13:24.993Z,3.00
2023-02-04T05:15:51.971Z,5.00
2023-02-04T05:18:18.729Z,4.00
2023-02-04T05:20:45.817Z,2.00
2023-02-04T05:23:12.685Z,3.00
2023-02-04T05:25:39.542Z,3.50
2023-02-04T05:28:06.374Z,9.50
2023-02-04T05:30:35.110Z,9.75
2023-02-04T05:33:02.225Z,7.00
2023-02-04T05:35:28.970Z,5.00
2023-02-04T05:37:55.845Z,3.00
2023-02-04T05:40:22.639Z,3.50
2023-02-04T05:42:49.445Z,3.75
2023-02-04T05:45:17.597Z,2.25
2023-02-04T05:47:45.867Z,3.00
2023-02-04T05:50:13.593Z,3.00
2023-02-04T05:52:40.617Z,4.00
2023-02-04T05:55:10.110Z,2.00
2023-02-04T05:57:37.425Z,3.50
2023-02-04T06:00:06.054Z,5.00
2023-02-04T06:02:38.938Z,5.00
2023-02-04T06:05:08.188Z,5.00
2023-02-04T06:07:34.960Z,3.00
2023-02-04T06:10:01.872Z,3.75
2023-02-04T06:12:28.799Z,2.00
2023-02-04T06:14:55.871Z,4.25
2023-02-04T06:17:22.838Z,2.00
2023-02-04T06:19:49.861Z,4.00
2023-02-04T06:22:18.308Z,2.00
2023-02-04T06:24:47.223Z,4.00
2023-02-04T06:27:14.248Z,2.00
2023-02-04T06:29:41.105Z,3.25
2023-02-04T06:32:07.888Z,3.50
2023-02-04T06:34:34.719Z,3.00
2023-02-04T06:37:01.525Z,2.25
2023-02-04T06:39:30.090Z,2.00
2023-02-04T06:41:57.183Z,4.75
2023-02-04T06:44:24.152Z,2.50
2023-02-04T06:46:50.988Z,4.00
2023-02-04T06:49:17.814Z,5.25
2023-02-04T06:51:44.589Z,5.25
2023-02-04T06:54:11.684Z,5.00
2023-02-04T06:56:39.944Z,4.50
2023-02-04T06:59:08.184Z,6.00
2023-02-04T07:01:35.183Z,5.00
2023-02-04T07:04:02.461Z,6.25
2023-02-04T07:06:29.273Z,6.00
2023-02-04T07:08:56.286Z,8.25
2023-02-04T07:11:23.082Z,7.00
2023-02-04T07:13:51.319Z,4.00
2023-02-04T07:16:18.151Z,6.00
2023-02-04T07:18:44.971Z,7.00
2023-02-04T07:21:11.852Z,11.75
2023-02-04T07:23:39.377Z,20.00
2023-02-04T07:26:12.396Z,10.50
2023-02-04T07:28:41.197Z,9.00
2023-02-04T07:31:09.447Z,8.25
2023-02-04T07:33:36.483Z,6.25
2023-02-04T07:36:03.737Z,5.00
2023-02-04T07:38:30.822Z,7.75
2023-02-04T07:40:57.572Z,11.75
2023-02-04T07:43:24.874Z,9.00
2023-02-04T07:45:52.457Z,11.75
2023-02-04T07:48:20.783Z,10.25
2023-02-04T07:50:47.670Z,14.00
2023-02-04T07:53:14.469Z,14.25
2023-02-04T07:55:41.214Z,15.25
2023-02-04T07:58:08.002Z,12.00
2023-02-04T08:00:34.991Z,11.25
2023-02-04T08:03:01.846Z,9.50
2023-02-04T08:05:30.219Z,10.00
2023-02-04T08:07:57.008Z,8.25
2023-02-04T08:10:25.640Z,8.25
2023-02-04T08:12:52.440Z,7.25
2023-02-04T08:15:19.619Z,10.25
2023-02-04T08:17:46.755Z,8.00
2023-02-04T08:20:13.658Z,9.00
2023-02-04T08:22:41.861Z,7.50
2023-02-04T08:25:10.765Z,8.75
2023-02-04T08:27:37.688Z,7.00
2023-02-04T08:30:06.816Z,5.75
2023-02-04T08:32:33.822Z,6.00
2023-02-04T08:35:01.437Z,6.00
2023-02-04T08:37:28.290Z,6.00
2023-02-04T08:39:56.604Z,8.75
2023-02-04T08:42:23.592Z,6.75
2023-02-04T08:44:50.557Z,7.00
2023-02-04T08:47:17.478Z,8.75
2023-02-04T08:49:44.320Z,5.00
2023-02-04T08:52:11.200Z,7.75
2023-02-04T08:54:37.970Z,8.00
2023-02-04T08:57:06.099Z,8.50
2023-02-04T08:59:33.170Z,9.00
2023-02-04T09:02:00.125Z,7.25
2023-02-04T09:04:27.211Z,7.00
2023-02-04T09:06:54.434Z,8.00
2023-02-04T09:09:23.007Z,10.25
2023-02-04T09:11:50.642Z,10.50
2023-02-04T09:14:18.986Z,14.75
2023-02-04T09:16:46.043Z,14.50
2023-02-04T09:19:13.318Z,14.00
2023-02-04T09:21:40.092Z,12.00
2023-02-04T09:24:07.925Z,11.00
2023-02-04T09:26:34.822Z,10.00
2023-02-04T09:29:01.956Z,8.00
2023-02-04T09:31:30.243Z,7.00
2023-02-04T09:33:57.230Z,1.50
2023-02-04T09:36:24.193Z,7.00
2023-02-04T09:38:51.013Z,6.00
2023-02-04T09:41:17.878Z,5.00
2023-02-04T09:43:45.732Z,7.75
2023-02-04T09:46:20.397Z,6.00
2023-02-04T09:48:49.763Z,6.00
2023-02-04T09:51:21.504Z,6.00
2023-02-04T09:53:50.652Z,4.00
2023-02-04T09:56:17.554Z,4.25
2023-02-04T09:58:44.494Z,4.00
2023-02-04T10:01:16.741Z,5.50
2023-02-04T10:03:48.407Z,5.00
2023-02-04T10:06:17.475Z,3.75
2023-02-04T10:08:48.996Z,3.75
2023-02-04T10:11:20.080Z,2.50
2023-02-04T10:13:50.304Z,11.00
2023-02-04T10:16:22.719Z,27.75
2023-02-04T10:18:51.213Z,28.25
2023-02-04T10:21:24.529Z,22.25
2023-02-04T10:23:56.429Z,5.50
2023-02-04T10:26:27.226Z,3.00
2023-02-04T10:28:59.815Z,1.50
2023-02-04T10:31:37.095Z,2.00
2023-02-04T10:34:10.849Z,3.50
2023-02-04T10:36:39.348Z,2.50
2023-02-04T10:39:11.808Z,2.00
2023-02-04T10:41:43.974Z,2.00
2023-02-04T10:44:14.543Z,2.00
2023-02-04T10:46:43.196Z,2.33
2023-02-04T10:49:23.822Z,2.00
2023-02-04T10:51:52.381Z,1.00
2023-02-04T10:54:23.404Z,2.00
2023-02-04T10:56:50.413Z,2.00
2023-02-04T10:59:24.327Z,3.00
2023-02-04T11:01:51.442Z,2.00
2023-02-04T11:04:19.584Z,2.33
2023-02-04T11:06:46.539Z,2.75
2023-02-04T11:09:15.125Z,1.00
2023-02-04T11:11:47.120Z,1.75
2023-02-04T11:14:27.808Z,3.33
2023-02-04T11:16:57.128Z,1.00
2023-02-04T11:19:38.479Z,1.33
2023-02-04T11:22:22.218Z,1.00
2023-02-04T11:24:49.784Z,1.25
2023-02-04T11:27:24.527Z,0.50
2023-02-04T11:29:52.340Z,1.00
2023-02-04T11:32:39.980Z,2.00
2023-02-04T11:35:25.956Z,1.50
2023-02-04T11:37:54.566Z,1.25
2023-02-04T11:40:28.057Z,1.33
2023-02-04T11:43:02.134Z,1.33
2023-02-04T11:45:33.820Z,1.00
2023-02-04T11:48:10.396Z,1.00
2023-02-04T11:50:39.347Z,1.33
2023-02-04T11:53:06.293Z,2.00
2023-02-04T11:55:42.743Z,1.00
2023-02-04T11:58:15.713Z,1.00
2023-02-04T12:00:43.013Z,1.75
2023-02-04T12:03:24.510Z,1.50
2023-02-04T12:05:53.746Z,1.75
2023-02-04T12:08:33.079Z,2.00
2023-02-04T12:11:06.219Z,2.00
2023-02-04T12:13:34.505Z,1.00
2023-02-04T12:16:04.622Z,1.00
2023-02-04T12:18:34.774Z,2.00
2023-02-04T12:21:03.319Z,0.00
2023-02-04T12:23:30.967Z,1.00
2023-02-04T12:25:57.921Z,0.67
2023-02-04T12:28:25.173Z,1.00
2023-02-04T12:30:52.119Z,1.00
2023-02-04T12:33:19.162Z,0.00
2023-02-04T12:35:46.356Z,1.00
2023-02-04T12:38:15.555Z,1.75
2023-02-04T12:40:42.465Z,1.00
2023-02-04T12:43:09.258Z,1.00
2023-02-04T12:45:36.216Z,0.50
2023-02-04T12:48:03.366Z,0.75
2023-02-04T12:50:30.454Z,0.00
2023-02-04T12:52:59.679Z,2.00
2023-02-04T12:55:29.458Z,0.00
2023-02-04T12:57:56.512Z,2.00
2023-02-04T13:00:24.089Z,1.00
2023-02-04T13:02:51.184Z,1.00
2023-02-04T13:05:18.428Z,0.67
2023-02-04T13:07:45.867Z,2.00
2023-02-04T13:10:14.034Z,1.00
2023-02-04T13:12:42.205Z,1.00
2023-02-04T13:15:10.194Z,1.00
2023-02-04T13:17:37.415Z,0.25
2023-02-04T13:20:05.265Z,1.00
2023-02-04T13:22:32.411Z,1.25
2023-02-04T13:24:59.562Z,0.00
2023-02-04T13:27:27.060Z,1.00
2023-02-04T13:29:55.180Z,1.00
2023-02-04T13:32:22.138Z,0.75
2023-02-04T13:34:49.000Z,0.00
2023-02-04T13:37:16.152Z,4.33
2023-02-04T13:39:43.405Z,0.00
2023-02-04T13:42:10.250Z,0.00
2023-02-04T13:44:37.009Z,1.00
2023-02-04T13:47:05.621Z,0.25
2023-02-04T13:49:32.485Z,0.00
2023-02-04T13:51:59.334Z,0.00
2023-02-04T13:54:26.174Z,0.00
2023-02-04T13:56:53.311Z,1.00
2023-02-04T13:59:21.054Z,1.00
2023-02-04T14:01:48.116Z,0.00
2023-02-04T14:04:16.333Z,0.33
2023-02-04T14:06:43.185Z,1.00
2023-02-04T14:09:11.347Z,0.00
2023-02-04T14:11:39.292Z,0.00
2023-02-04T14:14:07.027Z,1.00
2023-02-04T14:16:35.695Z,1.00
2023-02-04T14:19:03.761Z,2.00
2023-02-04T14:21:31.973Z,0.75
2023-02-04T14:23:59.361Z,1.00
2023-02-04T14:26:26.108Z,0.00
2023-02-04T14:28:52.972Z,2.00
2023-02-04T14:31:19.857Z,2.00
2023-02-04T14:33:48.557Z,1.75
2023-02-04T14:36:17.128Z,1.75
2023-02-04T14:38:45.423Z,2.00
2023-02-04T14:41:12.431Z,1.00
2023-02-04T14:43:39.283Z,2.00
2023-02-04T14:46:06.203Z,2.00
2023-02-04T14:48:33.254Z,2.00
2023-02-04T14:51:00.092Z,2.00
2023-02-04T14:53:27.327Z,2.00
2023-02-04T14:55:55.656Z,1.25
2023-02-04T14:58:22.484Z,1.00
2023-02-04T15:00:49.436Z,3.00
2023-02-04T15:03:16.200Z,2.00
2023-02-04T15:05:43.179Z,2.75
2023-02-04T15:08:10.120Z,12.50
2023-02-04T15:10:37.168Z,3.25
2023-02-04T15:13:05.542Z,1.50
2023-02-04T15:15:32.346Z,2.00
2023-02-04T15:18:00.016Z,1.50
2023-02-04T15:20:26.834Z,1.25
2023-02-04T15:22:53.630Z,2.00
2023-02-04T15:25:20.436Z,1.50
2023-02-04T15:27:47.291Z,1.00
2023-02-04T15:30:17.415Z,1.25
2023-02-04T15:32:44.637Z,0.50
2023-02-04T15:35:11.970Z,2.25
2023-02-04T15:37:39.056Z,2.75
2023-02-04T15:40:07.093Z,2.25
2023-02-04T15:42:34.599Z,1.00
2023-02-04T15:45:01.362Z,2.00
2023-02-04T15:47:29.581Z,0.00
2023-02-04T15:49:56.499Z,1.00
2023-02-04T15:52:25.317Z,0.00
2023-02-04T15:54:52.863Z,2.00
2023-02-04T15:57:19.670Z,0.50
2023-02-04T15:59:46.601Z,4.25
2023-02-04T16:02:13.622Z,6.25
2023-02-04T16:04:41.980Z,1.00
2023-02-04T16:07:08.719Z,4.25
2023-02-04T16:09:36.032Z,2.00
2023-02-04T16:12:03.451Z,3.25
2023-02-04T16:14:30.485Z,2.00
2023-02-04T16:16:57.558Z,2.00
2023-02-04T16:19:24.413Z,1.25
2023-02-04T16:21:52.621Z,2.50
2023-02-04T16:24:20.111Z,2.75
2023-02-04T16:26:47.003Z,3.00
2023-02-04T16:29:13.904Z,4.00
2023-02-04T16:31:40.846Z,3.75
2023-02-04T16:34:07.806Z,3.00
2023-02-04T16:36:34.578Z,2.75
2023-02-04T16:39:02.833Z,4.00
2023-02-04T16:41:29.857Z,5.50
2023-02-04T16:43:56.836Z,4.25
2023-02-04T16:46:23.676Z,6.25
2023-02-04T16:48:50.821Z,5.00
2023-02-04T16:51:17.749Z,3.50
2023-02-04T16:53:44.639Z,9.00
2023-02-04T16:56:13.296Z,6.50
2023-02-04T16:58:40.166Z,7.00
2023-02-04T17:01:07.001Z,11.00
2023-02-04T17:03:35.214Z,17.00
2023-02-04T17:06:02.151Z,12.25
2023-02-04T17:08:29.296Z,6.00
2023-02-04T17:10:57.383Z,15.25
2023-02-04T17:13:25.605Z,11.75
2023-02-04T17:15:53.038Z,11.00
2023-02-04T17:18:19.987Z,12.00
2023-02-04T17:20:46.935Z,13.50
2023-02-04T17:23:13.956Z,13.75
2023-02-04T17:25:40.866Z,17.50
2023-02-04T17:28:07.757Z,15.25
2023-02-04T17:30:36.228Z,4.75
2023-02-04T17:33:03.272Z,15.00
2023-02-04T17:35:30.798Z,6.00
2023-02-04T17:37:57.903Z,7.75
2023-02-04T17:40:25.082Z,11.00
2023-02-04T17:42:51.904Z,12.25
2023-02-04T17:45:18.928Z,15.25
2023-02-04T17:47:47.295Z,14.50
2023-02-04T17:50:14.049Z,25.00
2023-02-04T17:52:41.130Z,28.75
2023-02-04T17:55:20.241Z,29.00
2023-02-04T17:57:47.098Z,24.25
2023-02-04T18:00:18.618Z,13.00
2023-02-04T18:02:49.852Z,7.25
2023-02-04T18:05:21.036Z,5.00
2023-02-04T18:07:58.789Z,5.25
2023-02-04T18:10:33.039Z,10.00
2023-02-04T18:13:09.932Z,8.50
2023-02-04T18:15:37.677Z,9.25
2023-02-04T18:18:20.255Z,9.75
2023-02-04T18:20:56.056Z,9.50
2023-02-04T18:23:22.963Z,28.00
2023-02-04T18:25:49.760Z,19.25
2023-02-04T18:28:19.604Z,8.00
2023-02-04T18:30:50.886Z,6.00
2023-02-04T18:33:23.288Z,8.75
2023-02-04T18:35:51.814Z,10.25
2023-02-04T18:38:25.411Z,8.75
2023-02-04T18:41:02.493Z,9.75
2023-02-04T18:43:36.222Z,12.50
2023-02-04T18:46:22.220Z,14.00
2023-02-04T18:49:01.537Z,13.00
2023-02-04T18:51:39.250Z,10.25
2023-02-04T18:54:27.973Z,13.00
2023-02-04T18:57:17.151Z,12.25
2023-02-04T18:59:44.133Z,13.25
2023-02-04T19:02:35.709Z,13.00
2023-02-04T19:05:22.814Z,13.75
2023-02-04T19:07:49.677Z,10.00
2023-02-04T19:10:33.686Z,12.00
2023-02-04T19:13:19.739Z,10.25
2023-02-04T19:16:04.981Z,11.25
2023-02-04T19:18:37.271Z,12.00
2023-02-04T19:21:25.957Z,13.25
2023-02-04T19:24:01.660Z,15.50
2023-02-04T19:26:35.091Z,13.25
2023-02-04T19:29:40.825Z,12.75
2023-02-04T19:32:23.886Z,22.75
2023-02-04T19:34:52.763Z,23.00
2023-02-04T19:37:24.919Z,22.00
2023-02-04T19:39:54.436Z,24.33
2023-02-04T19:42:32.893Z,12.25
2023-02-04T19:45:12.719Z,23.25
2023-02-04T19:47:42.813Z,14.25
2023-02-04T19:50:24.845Z,22.00
2023-02-04T19:52:56.713Z,23.00
2023-02-04T19:55:32.002Z,30.00
2023-02-04T19:58:10.385Z,24.00
2023-02-04T20:00:49.443Z,28.67
2023-02-04T20:03:39.796Z,22.00
2023-02-04T20:06:31.311Z,29.00
2023-02-04T20:09:06.357Z,30.00
2023-02-04T20:11:56.067Z,28.00
2023-02-04T20:14:36.838Z,21.25
2023-02-04T20:17:19.725Z,24.00
2023-02-04T20:19:47.536Z,25.67
2023-02-04T20:22:52.393Z,19.00
2023-02-04T20:25:37.187Z,26.00
2023-02-04T20:28:17.504Z,24.67
2023-02-04T20:30:45.069Z,27.00
2023-02-04T20:33:25.609Z,29.33
2023-02-04T20:36:37.129Z,28.33
2023-02-04T20:39:35.755Z,22.67
2023-02-04T20:42:37.580Z,24.67
2023-02-04T20:45:32.792Z,25.00
2023-02-04T20:48:22.687Z,24.67
2023-02-04T20:50:51.257Z,0.00
2023-02-04T20:53:26.548Z,22.00
2023-02-04T20:55:58.148Z,25.00
2023-02-04T20:58:28.499Z,24.00
2023-02-04T21:00:55.762Z,24.33
2023-02-04T21:03:28.716Z,23.00
2023-02-04T21:05:59.540Z,23.67
2023-02-04T21:08:35.674Z,20.00
2023-02-04T21:11:05.294Z,24.00
2023-02-04T21:13:32.793Z,27.33
2023-02-04T21:15:59.973Z,21.00
2023-02-04T21:18:28.545Z,27.33
2023-02-04T21:21:06.732Z,27.00
2023-02-04T21:23:43.170Z,28.00
2023-02-04T21:26:19.302Z,24.33
2023-02-04T21:29:09.373Z,25.00
2023-02-04T21:31:36.474Z,20.33
2023-02-04T21:34:08.008Z,24.00
2023-02-04T21:36:35.289Z,24.00
2023-02-04T21:39:02.428Z,26.00
2023-02-04T21:41:29.445Z,26.00
2023-02-04T21:43:58.275Z,27.33
2023-02-04T21:46:31.865Z,25.00
2023-02-04T21:48:58.795Z,22.00
2023-02-04T21:51:27.040Z,22.00
2023-02-04T21:53:53.872Z,24.00
2023-02-04T21:56:20.755Z,16.67
2023-02-04T21:58:47.508Z,21.25
2023-02-04T22:01:17.047Z,18.00
2023-02-04T22:06:37.852Z,19.00
2023-02-04T22:09:04.775Z,19.75
2023-02-04T22:11:31.527Z,19.25
2023-02-04T22:14:04.035Z,21.25
2023-02-04T22:16:34.239Z,21.33
2023-02-04T22:19:01.493Z,24.00
2023-02-04T22:21:28.489Z,24.00
2023-02-04T22:23:56.588Z,21.25
2023-02-04T22:26:23.357Z,21.00
2023-02-04T22:28:50.087Z,22.67
2023-02-04T22:31:17.162Z,19.67
2023-02-04T22:33:43.939Z,22.00
2023-02-04T22:36:10.680Z,22.33
2023-02-04T22:38:37.627Z,21.00
2023-02-04T22:41:06.023Z,19.00
2023-02-04T22:43:33.164Z,21.25
2023-02-04T22:46:00.132Z,21.67
2023-02-04T22:48:27.067Z,19.33
2023-02-04T22:50:53.868Z,23.33
2023-02-04T22:53:23.184Z,22.50
2023-02-04T22:55:50.368Z,23.33
2023-02-04T22:58:18.492Z,24.00
2023-02-04T23:00:46.806Z,23.00
2023-02-04T23:03:13.626Z,21.50
2023-02-04T23:05:41.994Z,19.00
2023-02-04T23:08:09.367Z,19.75
2023-02-04T23:10:38.951Z,20.25
2023-02-04T23:13:12.723Z,19.50
2023-02-04T23:15:44.214Z,18.00
2023-02-04T23:18:13.176Z,19.00
2023-02-04T23:20:41.117Z,16.33
2023-02-04T23:23:09.440Z,20.00
2023-02-04T23:25:36.790Z,16.67
2023-02-04T23:28:10.338Z,19.33
2023-02-04T23:30:39.966Z,16.67
2023-02-04T23:33:13.829Z,16.67
2023-02-04T23:35:49.209Z,16.67
2023-02-04T23:38:16.838Z,18.00
2023-02-04T23:40:58.278Z,17.00
2023-02-04T23:43:41.653Z,14.50
2023-02-04T23:46:20.474Z,18.75
2023-02-04T23:48:50.260Z,23.33
2023-02-04T23:51:17.312Z,24.00
2023-02-04T23:53:44.133Z,21.50
2023-02-04T23:56:11.043Z,20.75
2023-02-04T23:58:37.825Z,23.00
